createdAt,value
2018-08-03T00:01:13.399Z,21.90
2018-08-03T00:03:42.727Z,21.90
2018-08-03T00:06:11.949Z,21.80
2018-08-03T00:08:41.093Z,21.80
2018-08-03T00:11:10.299Z,21.80
2018-08-03T00:13:39.539Z,21.70
2018-08-03T00:16:08.748Z,21.70
2018-08-03T00:18:37.891Z,21.70
2018-08-03T00:21:07.399Z,21.60
2018-08-03T00:23:36.778Z,21.60
2018-08-03T00:26:06.191Z,21.50
2018-08-03T00:28:35.344Z,21.50
2018-08-03T00:31:04.745Z,21.50
2018-08-03T00:33:33.943Z,21.40
2018-08-03T00:36:03.292Z,21.40
2018-08-03T00:38:32.479Z,21.30
2018-08-03T00:41:01.664Z,21.30
2018-08-03T00:43:30.841Z,21.20
2018-08-03T00:45:59.994Z,21.20
2018-08-03T00:48:29.140Z,21.20
2018-08-03T00:50:58.628Z,21.20
2018-08-03T00:53:27.831Z,21.10
2018-08-03T00:55:56.975Z,21.10
2018-08-03T00:58:26.327Z,21.10
2018-08-03T01:00:55.717Z,21.10
2018-08-03T01:03:24.891Z,21.10
2018-08-03T01:05:54.039Z,21.00
2018-08-03T01:08:23.221Z,21.00
2018-08-03T01:10:52.358Z,20.90
2018-08-03T01:13:21.804Z,20.90
2018-08-03T01:15:50.979Z,20.80
2018-08-03T01:18:20.171Z,20.80
2018-08-03T01:20:49.368Z,20.80
2018-08-03T01:23:18.536Z,20.80
2018-08-03T01:25:47.762Z,20.80
2018-08-03T01:28:17.020Z,20.70
2018-08-03T01:30:46.221Z,20.70
2018-08-03T01:33:15.427Z,20.70
2018-08-03T01:35:44.596Z,20.70
2018-08-03T01:38:13.850Z,20.70
2018-08-03T01:40:43.021Z,20.60
2018-08-03T01:43:12.219Z,20.60
2018-08-03T01:45:41.383Z,20.60
2018-08-03T01:48:11.110Z,20.50
2018-08-03T01:50:40.400Z,20.50
2018-08-03T01:53:09.636Z,20.50
2018-08-03T01:55:38.827Z,20.40
2018-08-03T01:58:08.053Z,20.40
2018-08-03T02:00:37.231Z,20.40
2018-08-03T02:03:06.455Z,20.40
2018-08-03T02:05:35.679Z,20.30
2018-08-03T02:08:04.870Z,20.30
2018-08-03T02:10:34.116Z,20.30
2018-08-03T02:13:03.291Z,20.30
2018-08-03T02:15:32.519Z,20.30
2018-08-03T02:18:01.741Z,20.30
2018-08-03T02:20:30.960Z,20.20
2018-08-03T02:23:00.116Z,20.20
2018-08-03T02:25:29.304Z,20.20
2018-08-03T02:27:58.503Z,20.20
2018-08-03T02:30:27.692Z,20.10
2018-08-03T02:32:56.868Z,20.10
2018-08-03T02:35:26.104Z,20.00
2018-08-03T02:37:55.345Z,20.00
2018-08-03T02:40:24.557Z,20.00
2018-08-03T02:42:53.913Z,19.90
2018-08-03T02:45:23.144Z,19.90
2018-08-03T02:47:52.299Z,19.80
2018-08-03T02:50:21.528Z,19.80
2018-08-03T02:52:50.699Z,19.80
2018-08-03T02:55:19.908Z,19.80
2018-08-03T02:57:49.074Z,19.80
2018-08-03T03:00:18.261Z,19.80
2018-08-03T03:02:47.491Z,19.70
2018-08-03T03:05:16.669Z,19.70
2018-08-03T03:07:45.913Z,19.60
2018-08-03T03:10:15.112Z,19.60
2018-08-03T03:12:44.573Z,19.60
2018-08-03T03:15:13.752Z,19.60
2018-08-03T03:17:43.139Z,19.60
2018-08-03T03:20:12.344Z,19.60
2018-08-03T03:22:41.602Z,19.60
2018-08-03T03:25:10.763Z,19.50
2018-08-03T03:27:39.971Z,19.50
2018-08-03T03:30:09.447Z,19.50
2018-08-03T03:32:38.778Z,19.50
2018-08-03T03:35:07.964Z,19.50
2018-08-03T03:37:37.333Z,19.50
2018-08-03T03:40:06.740Z,19.40
2018-08-03T03:42:36.029Z,19.50
2018-08-03T03:45:05.467Z,19.40
2018-08-03T03:47:34.631Z,19.40
2018-08-03T03:50:04.288Z,19.40
2018-08-03T03:52:33.476Z,19.40
2018-08-03T03:55:02.704Z,19.40
2018-08-03T03:57:31.870Z,19.40
2018-08-03T04:00:01.171Z,19.40
2018-08-03T04:02:30.423Z,19.40
2018-08-03T04:04:59.812Z,19.40
2018-08-03T04:07:29.020Z,19.40
2018-08-03T04:09:58.244Z,19.40
2018-08-03T04:12:27.673Z,19.40
2018-08-03T04:14:56.906Z,19.50
2018-08-03T04:17:26.074Z,19.40
2018-08-03T04:19:55.359Z,19.40
2018-08-03T04:22:24.612Z,19.50
2018-08-03T04:24:53.924Z,19.60
2018-08-03T04:27:23.141Z,19.60
2018-08-03T04:29:52.331Z,19.70
2018-08-03T04:32:21.563Z,19.80
2018-08-03T04:34:50.758Z,20.20
2018-08-03T04:37:19.992Z,20.70
2018-08-03T04:39:49.168Z,21.30
2018-08-03T04:42:18.417Z,21.80
2018-08-03T04:44:47.512Z,22.50
2018-08-03T04:47:16.721Z,23.10
2018-08-03T04:49:46.127Z,23.60
2018-08-03T04:52:15.287Z,24.00
2018-08-03T04:54:44.572Z,24.30
2018-08-03T04:57:13.917Z,24.80
2018-08-03T04:59:43.080Z,25.10
2018-08-03T05:02:12.744Z,25.50
2018-08-03T05:04:41.960Z,25.90
2018-08-03T05:09:39.943Z,26.90
2018-08-03T05:12:09.538Z,27.40
2018-08-03T05:14:38.692Z,28.00
2018-08-03T05:17:07.874Z,28.60
2018-08-03T05:19:37.431Z,29.00
2018-08-03T05:22:06.597Z,29.40
2018-08-03T05:27:04.712Z,30.20
2018-08-03T05:29:33.967Z,30.60
2018-08-03T05:32:03.582Z,31.00
2018-08-03T05:34:32.903Z,31.20
2018-08-03T05:37:02.055Z,31.30
2018-08-03T05:39:31.247Z,31.60
2018-08-03T05:42:00.451Z,32.20
2018-08-03T05:44:29.773Z,32.40
2018-08-03T05:49:27.799Z,33.20
2018-08-03T05:51:56.947Z,33.70
2018-08-03T05:54:26.135Z,33.70
2018-08-03T05:56:55.276Z,33.70
2018-08-03T05:59:24.441Z,33.90
2018-08-03T06:04:22.483Z,34.80
2018-08-03T06:06:51.724Z,34.90
2018-08-03T06:09:20.928Z,35.60
2018-08-03T06:11:50.111Z,36.20
2018-08-03T06:14:19.277Z,36.40
2018-08-03T06:16:48.556Z,36.40
2018-08-03T06:19:17.759Z,36.10
2018-08-03T06:21:46.977Z,36.60
2018-08-03T06:24:16.155Z,36.80
2018-08-03T06:26:45.416Z,37.40
2018-08-03T06:29:14.672Z,37.70
2018-08-03T06:31:43.953Z,37.60
2018-08-03T06:34:13.091Z,37.60
2018-08-03T06:36:42.275Z,37.70
2018-08-03T06:39:12.422Z,38.10
2018-08-03T06:41:42.140Z,38.20
2018-08-03T06:44:11.354Z,38.20
2018-08-03T06:46:40.665Z,38.20
2018-08-03T06:49:09.866Z,38.30
2018-08-03T06:51:39.207Z,38.70
2018-08-03T06:54:08.471Z,39.40
2018-08-03T06:56:37.780Z,40.10
2018-08-03T06:59:07.020Z,40.30
2018-08-03T07:01:36.172Z,41.00
2018-08-03T07:04:05.416Z,41.80
2018-08-03T07:06:34.680Z,42.10
2018-08-03T07:09:05.966Z,42.30
2018-08-03T07:11:35.116Z,42.50
2018-08-03T07:14:04.353Z,42.60
2018-08-03T07:16:33.655Z,42.90
2018-08-03T07:19:02.823Z,42.10
2018-08-03T07:21:32.033Z,42.10
2018-08-03T07:24:01.285Z,42.60
2018-08-03T07:26:30.508Z,43.30
2018-08-03T07:28:59.748Z,43.30
2018-08-03T07:31:29.007Z,43.80
2018-08-03T07:33:58.208Z,43.00
2018-08-03T07:36:27.797Z,43.30
2018-08-03T07:38:57.058Z,43.60
2018-08-03T07:41:26.303Z,44.10
2018-08-03T07:43:55.488Z,44.40
2018-08-03T07:46:24.680Z,44.00
2018-08-03T07:48:53.891Z,44.40
2018-08-03T07:51:23.168Z,44.90
2018-08-03T07:53:52.346Z,45.90
2018-08-03T07:56:21.557Z,45.70
2018-08-03T08:01:19.509Z,45.20
2018-08-03T08:03:48.700Z,45.00
2018-08-03T08:06:17.928Z,45.10
2018-08-03T08:08:47.067Z,45.20
2018-08-03T08:11:16.216Z,44.90
2018-08-03T08:13:45.452Z,45.30
2018-08-03T08:16:14.763Z,45.50
2018-08-03T08:18:43.972Z,46.00
2018-08-03T08:21:13.140Z,45.90
2018-08-03T08:23:42.485Z,45.90
2018-08-03T08:26:11.739Z,46.10
2018-08-03T08:28:40.888Z,45.40
2018-08-03T08:31:10.100Z,44.90
2018-08-03T08:36:08.027Z,45.10
2018-08-03T08:38:37.256Z,45.10
2018-08-03T08:41:07.229Z,45.40
2018-08-03T08:43:36.442Z,44.80
2018-08-03T08:46:05.611Z,44.60
2018-08-03T08:48:34.779Z,44.50
2018-08-03T08:51:04.097Z,44.10
2018-08-03T08:53:33.283Z,44.90
2018-08-03T08:56:02.457Z,44.00
2018-08-03T08:58:31.630Z,44.30
2018-08-03T09:01:00.844Z,44.40
2018-08-03T09:03:29.995Z,44.50
2018-08-03T09:05:59.223Z,44.70
2018-08-03T09:08:28.495Z,44.40
2018-08-03T09:10:57.684Z,44.90
2018-08-03T09:13:27.216Z,45.00
2018-08-03T09:15:56.347Z,45.20
2018-08-03T09:18:25.591Z,45.30
2018-08-03T09:23:23.575Z,45.30
2018-08-03T09:25:52.828Z,45.20
2018-08-03T09:28:22.091Z,44.70
2018-08-03T09:30:51.341Z,44.40
2018-08-03T09:33:20.470Z,44.60
2018-08-03T09:35:49.681Z,45.10
2018-08-03T09:38:19.002Z,45.50
2018-08-03T09:40:48.215Z,45.10
2018-08-03T09:43:17.385Z,44.70
2018-08-03T09:45:46.637Z,44.00
2018-08-03T09:48:15.867Z,43.90
2018-08-03T09:50:45.077Z,44.90
2018-08-03T09:53:14.308Z,45.20
2018-08-03T09:55:43.549Z,44.80
2018-08-03T09:58:12.730Z,44.40
2018-08-03T10:00:47.271Z,43.30
2018-08-03T10:03:16.463Z,43.00
2018-08-03T10:05:45.624Z,42.50
2018-08-03T10:08:14.838Z,41.90
2018-08-03T10:10:44.041Z,42.40
2018-08-03T10:13:13.275Z,43.20
2018-08-03T10:15:42.618Z,43.10
2018-08-03T10:20:40.733Z,43.10
2018-08-03T10:23:10.140Z,43.10
2018-08-03T10:25:39.356Z,43.10
2018-08-03T10:28:08.572Z,43.30
2018-08-03T10:30:37.746Z,43.40
2018-08-03T10:33:06.948Z,42.90
2018-08-03T10:35:36.144Z,43.10
2018-08-03T10:38:05.364Z,42.80
2018-08-03T10:40:34.581Z,42.90
2018-08-03T10:43:03.969Z,42.40
2018-08-03T10:45:33.162Z,42.30
2018-08-03T10:48:02.336Z,42.00
2018-08-03T10:50:31.602Z,41.50
2018-08-03T10:53:00.964Z,41.40
2018-08-03T10:55:30.275Z,41.70
2018-08-03T10:57:59.427Z,41.60
2018-08-03T11:00:30.280Z,41.70
2018-08-03T11:03:00.291Z,41.50
2018-08-03T11:05:29.787Z,41.10
2018-08-03T11:07:59.103Z,41.60
2018-08-03T11:10:28.284Z,41.20
2018-08-03T11:12:57.528Z,41.20
2018-08-03T11:15:26.979Z,41.30
2018-08-03T11:17:56.232Z,41.40
2018-08-03T11:20:25.451Z,41.60
2018-08-03T11:22:54.755Z,41.30
2018-08-03T11:25:23.983Z,41.00
2018-08-03T11:27:53.168Z,40.20
2018-08-03T11:32:51.236Z,39.30
2018-08-03T11:35:20.468Z,39.90
2018-08-03T11:37:49.783Z,40.20
2018-08-03T11:40:19.013Z,40.40
2018-08-03T11:42:48.280Z,40.50
2018-08-03T11:45:17.488Z,40.00
2018-08-03T11:47:46.852Z,39.70
2018-08-03T11:50:18.540Z,40.00
2018-08-03T11:52:47.829Z,39.70
2018-08-03T11:55:17.052Z,39.70
2018-08-03T11:57:46.256Z,39.60
2018-08-03T12:00:15.456Z,39.30
2018-08-03T12:02:44.715Z,39.10
2018-08-03T12:05:13.888Z,38.90
2018-08-03T12:07:43.089Z,38.90
2018-08-03T12:10:12.269Z,38.70
2018-08-03T12:12:41.504Z,38.50
2018-08-03T12:15:10.691Z,38.40
2018-08-03T12:17:39.907Z,38.50
2018-08-03T12:20:09.060Z,38.50
2018-08-03T12:25:07.972Z,37.90
2018-08-03T12:27:37.191Z,37.60
2018-08-03T12:30:06.392Z,37.80
2018-08-03T12:32:35.614Z,37.90
2018-08-03T12:35:04.827Z,37.80
2018-08-03T12:37:34.034Z,37.70
2018-08-03T12:40:03.306Z,37.70
2018-08-03T12:42:32.808Z,37.70
2018-08-03T12:45:02.128Z,37.80
2018-08-03T12:47:31.283Z,37.80
2018-08-03T12:50:00.543Z,37.50
2018-08-03T12:52:29.765Z,36.90
2018-08-03T12:54:59.194Z,36.90
2018-08-03T12:57:28.327Z,37.00
2018-08-03T12:59:57.516Z,37.00
2018-08-03T13:02:26.653Z,37.20
2018-08-03T13:04:55.805Z,37.20
2018-08-03T13:07:25.114Z,37.20
2018-08-03T13:09:54.187Z,36.90
2018-08-03T13:12:23.384Z,36.80
2018-08-03T13:14:52.695Z,36.80
2018-08-03T13:17:21.910Z,36.90
2018-08-03T13:20:04.673Z,36.80
2018-08-03T13:22:33.915Z,36.90
2018-08-03T13:25:03.445Z,37.00
2018-08-03T13:27:32.640Z,37.10
2018-08-03T13:30:02.032Z,37.10
2018-08-03T13:32:31.196Z,37.10
2018-08-03T13:35:00.751Z,37.00
2018-08-03T13:37:29.924Z,36.90
2018-08-03T13:39:59.090Z,36.70
2018-08-03T13:42:28.316Z,36.30
2018-08-03T13:44:57.575Z,36.30
2018-08-03T13:47:26.837Z,36.00
2018-08-03T13:49:56.207Z,36.00
2018-08-03T13:52:25.580Z,36.20
2018-08-03T13:54:54.788Z,36.30
2018-08-03T13:57:24.114Z,36.30
2018-08-03T13:59:55.257Z,36.40
2018-08-03T14:02:26.550Z,36.50
2018-08-03T14:04:56.256Z,36.30
2018-08-03T14:07:26.824Z,36.30
2018-08-03T14:09:55.987Z,36.20
2018-08-03T14:12:25.156Z,36.00
2018-08-03T14:14:54.468Z,36.00
2018-08-03T14:17:24.070Z,35.90
2018-08-03T14:19:53.276Z,35.70
2018-08-03T14:22:22.839Z,35.70
2018-08-03T14:24:52.083Z,35.80
2018-08-03T14:27:21.416Z,35.80
2018-08-03T14:29:50.694Z,35.80
2018-08-03T14:32:20.005Z,35.90
2018-08-03T14:34:49.408Z,35.80
2018-08-03T14:37:19.227Z,35.70
2018-08-03T14:39:48.487Z,35.50
2018-08-03T14:42:17.725Z,35.60
2018-08-03T14:44:47.191Z,35.50
2018-08-03T14:47:16.416Z,35.50
2018-08-03T14:49:45.660Z,35.50
2018-08-03T14:52:14.892Z,35.60
2018-08-03T14:54:44.042Z,35.60
2018-08-03T14:57:13.298Z,35.70
2018-08-03T14:59:42.517Z,35.70
2018-08-03T15:02:11.712Z,35.70
2018-08-03T15:04:41.023Z,35.60
2018-08-03T15:07:10.220Z,35.60
2018-08-03T15:09:39.357Z,35.40
2018-08-03T15:12:08.541Z,35.30
2018-08-03T15:14:37.779Z,35.30
2018-08-03T15:17:07.363Z,35.30
2018-08-03T15:19:36.520Z,35.20
2018-08-03T15:22:05.803Z,34.90
2018-08-03T15:24:35.031Z,34.80
2018-08-03T15:27:04.479Z,34.80
2018-08-03T15:29:33.725Z,34.80
2018-08-03T15:32:02.926Z,34.80
2018-08-03T15:34:32.142Z,34.70
2018-08-03T15:37:01.649Z,34.80
2018-08-03T15:39:30.852Z,34.90
2018-08-03T15:42:00.461Z,34.90
2018-08-03T15:44:29.717Z,34.90
2018-08-03T15:46:58.951Z,34.90
2018-08-03T15:49:28.927Z,34.90
2018-08-03T15:51:58.102Z,35.00
2018-08-03T15:54:27.308Z,35.00
2018-08-03T15:56:56.626Z,35.10
2018-08-03T15:59:25.812Z,35.10
2018-08-03T16:01:54.994Z,35.10
2018-08-03T16:04:24.162Z,35.00
2018-08-03T16:06:53.352Z,34.90
2018-08-03T16:09:22.628Z,34.90
2018-08-03T16:11:51.900Z,34.90
2018-08-03T16:14:21.121Z,34.90
2018-08-03T16:16:50.301Z,34.80
2018-08-03T16:19:19.726Z,34.80
2018-08-03T16:24:18.528Z,34.60
2018-08-03T16:26:47.788Z,34.60
2018-08-03T16:29:17.090Z,34.60
2018-08-03T16:31:46.291Z,34.50
2018-08-03T16:34:15.496Z,34.50
2018-08-03T16:36:44.748Z,34.50
2018-08-03T16:39:13.976Z,34.40
2018-08-03T16:41:43.248Z,34.30
2018-08-03T16:44:12.489Z,34.30
2018-08-03T16:46:41.725Z,34.20
2018-08-03T16:49:10.926Z,34.20
2018-08-03T16:51:40.240Z,34.10
2018-08-03T16:54:09.476Z,34.00
2018-08-03T16:56:38.668Z,34.00
2018-08-03T16:59:07.906Z,33.90
2018-08-03T17:01:37.136Z,33.90
2018-08-03T17:04:06.465Z,33.80
2018-08-03T17:06:35.697Z,33.80
2018-08-03T17:09:07.893Z,33.70
2018-08-03T17:11:37.176Z,33.70
2018-08-03T17:14:06.476Z,33.70
2018-08-03T17:16:36.057Z,33.60
2018-08-03T17:19:05.374Z,33.60
2018-08-03T17:21:34.643Z,33.50
2018-08-03T17:24:04.406Z,33.50
2018-08-03T17:26:33.920Z,33.40
2018-08-03T17:29:03.340Z,33.40
2018-08-03T17:31:32.731Z,33.40
2018-08-03T17:34:02.241Z,33.30
2018-08-03T17:36:31.549Z,33.30
2018-08-03T17:39:00.922Z,33.20
2018-08-03T17:41:30.207Z,33.10
2018-08-03T17:43:59.563Z,33.00
2018-08-03T17:46:28.914Z,33.00
2018-08-03T17:48:58.172Z,32.90
2018-08-03T17:51:27.420Z,32.80
2018-08-03T17:53:56.699Z,32.70
2018-08-03T17:56:26.009Z,32.70
2018-08-03T17:58:55.247Z,32.60
2018-08-03T18:01:24.585Z,32.50
2018-08-03T18:03:54.350Z,32.40
2018-08-03T18:06:23.556Z,32.30
2018-08-03T18:08:52.863Z,32.30
2018-08-03T18:11:22.181Z,32.20
2018-08-03T18:13:51.416Z,32.00
2018-08-03T18:16:20.741Z,32.00
2018-08-03T18:18:50.145Z,31.90
2018-08-03T18:21:19.388Z,31.80
2018-08-03T18:23:48.832Z,31.70
2018-08-03T18:28:47.185Z,31.60
2018-08-03T18:33:45.242Z,31.50
2018-08-03T18:36:14.907Z,31.40
2018-08-03T18:38:44.287Z,31.30
2018-08-03T18:41:13.541Z,31.30
2018-08-03T18:43:42.832Z,31.20
2018-08-03T18:46:12.168Z,31.00
2018-08-03T18:48:41.372Z,31.00
2018-08-03T18:51:11.580Z,30.80
2018-08-03T18:53:41.005Z,30.70
2018-08-03T18:56:10.180Z,30.60
2018-08-03T18:58:39.530Z,30.60
2018-08-03T19:01:08.776Z,30.40
2018-08-03T19:03:38.241Z,30.30
2018-08-03T19:08:36.421Z,30.10
2018-08-03T19:11:06.316Z,30.00
2018-08-03T19:13:35.573Z,29.90
2018-08-03T19:16:04.796Z,29.80
2018-08-03T19:18:34.121Z,29.80
2018-08-03T19:21:03.657Z,29.70
2018-08-03T19:28:30.998Z,29.40
2018-08-03T19:31:00.989Z,29.30
2018-08-03T19:33:30.230Z,29.30
2018-08-03T19:35:59.460Z,29.20
2018-08-03T19:38:28.652Z,29.00
2018-08-03T19:40:57.860Z,29.00
2018-08-03T19:43:27.037Z,29.00
2018-08-03T19:48:25.132Z,28.90
2018-08-03T19:53:23.361Z,28.70
2018-08-03T19:55:52.709Z,28.60
2018-08-03T19:58:22.090Z,28.60
2018-08-03T20:00:51.696Z,28.60
2018-08-03T20:03:21.205Z,28.60
2018-08-03T20:05:50.432Z,28.60
2018-08-03T20:10:48.578Z,28.50
2018-08-03T20:13:17.945Z,28.50
2018-08-03T20:15:47.284Z,28.50
2018-08-03T20:18:16.511Z,28.50
2018-08-03T20:20:45.765Z,28.30
2018-08-03T20:23:16.176Z,28.20
2018-08-03T20:25:45.484Z,28.20
2018-08-03T20:28:14.708Z,28.10
2018-08-03T20:30:44.156Z,28.10
2018-08-03T20:33:13.420Z,28.10
2018-08-03T20:35:42.627Z,28.00
2018-08-03T20:38:11.907Z,28.00
2018-08-03T20:40:41.158Z,27.90
2018-08-03T20:45:39.233Z,27.80
2018-08-03T20:50:37.436Z,27.80
2018-08-03T20:53:06.737Z,27.70
2018-08-03T20:55:36.064Z,27.70
2018-08-03T20:58:05.404Z,27.60
2018-08-03T21:00:34.641Z,27.60
2018-08-03T21:03:04.093Z,27.50
2018-08-03T21:05:33.348Z,27.50
2018-08-03T21:10:31.449Z,27.50
2018-08-03T21:13:00.777Z,27.40
2018-08-03T21:15:29.981Z,27.40
2018-08-03T21:17:59.320Z,27.40
2018-08-03T21:20:28.576Z,27.30
2018-08-03T21:22:57.861Z,27.30
2018-08-03T21:25:27.096Z,27.20
2018-08-03T21:27:56.352Z,27.10
2018-08-03T21:30:25.617Z,27.10
2018-08-03T21:32:54.926Z,27.00
2018-08-03T21:35:24.246Z,27.00
2018-08-03T21:37:53.416Z,27.00
2018-08-03T21:40:22.692Z,27.00
2018-08-03T21:42:52.065Z,27.00
2018-08-03T21:45:21.269Z,26.90
2018-08-03T21:47:50.582Z,26.90
2018-08-03T21:50:19.911Z,26.80
2018-08-03T21:52:49.140Z,26.80
2018-08-03T21:55:18.360Z,26.80
2018-08-03T21:57:47.587Z,26.80
2018-08-03T22:00:21.886Z,26.70
2018-08-03T22:02:51.496Z,26.70
2018-08-03T22:05:20.814Z,26.60
2018-08-03T22:10:19.764Z,26.40
2018-08-03T22:12:49.118Z,26.40
2018-08-03T22:15:18.428Z,26.40
2018-08-03T22:17:47.738Z,26.30
2018-08-03T22:20:17.056Z,26.30
2018-08-03T22:22:46.910Z,26.20
2018-08-03T22:25:16.127Z,26.20
2018-08-03T22:27:45.471Z,26.10
2018-08-03T22:30:14.884Z,26.00
2018-08-03T22:32:44.246Z,25.90
2018-08-03T22:35:13.463Z,25.90
2018-08-03T22:37:44.258Z,25.80
2018-08-03T22:40:13.429Z,25.70
2018-08-03T22:42:42.755Z,25.70
2018-08-03T22:45:12.272Z,25.60
2018-08-03T22:47:41.512Z,25.60
2018-08-03T22:50:10.884Z,25.50
2018-08-03T22:52:40.188Z,25.50
2018-08-03T22:55:09.607Z,25.40
2018-08-03T22:57:38.926Z,25.30
2018-08-03T23:00:08.922Z,25.30
2018-08-03T23:02:38.228Z,25.30
2018-08-03T23:05:07.431Z,25.30
2018-08-03T23:07:36.619Z,25.20
2018-08-03T23:10:06.333Z,25.10
2018-08-03T23:12:35.503Z,25.10
2018-08-03T23:15:04.879Z,25.10
2018-08-03T23:17:34.033Z,25.10
2018-08-03T23:20:03.245Z,24.90
2018-08-03T23:22:32.555Z,24.90
2018-08-03T23:25:01.951Z,24.90
2018-08-03T23:27:31.282Z,24.90
2018-08-03T23:30:00.471Z,24.80
2018-08-03T23:32:29.852Z,24.80
2018-08-03T23:34:59.003Z,24.70
2018-08-03T23:37:28.295Z,24.70
2018-08-03T23:39:57.860Z,24.60
2018-08-03T23:42:27.280Z,24.50
2018-08-03T23:44:56.470Z,24.50
2018-08-03T23:47:25.712Z,24.40
2018-08-03T23:49:54.945Z,24.40
2018-08-03T23:52:24.256Z,24.40
2018-08-03T23:54:53.498Z,24.30
2018-08-03T23:57:22.738Z,24.20
2018-08-03T23:59:52.114Z,24.20
